createdAt,value
2022-12-12T00:00:20.249Z,100682.50
2022-12-12T00:05:35.608Z,100685.28
2022-12-12T00:10:51.245Z,100693.81
2022-12-12T00:16:06.681Z,100691.31
2022-12-12T00:21:22.334Z,100689.53
2022-12-12T00:26:37.244Z,100692.28
2022-12-12T00:31:52.432Z,100703.38
2022-12-12T00:37:08.234Z,100705.66
2022-12-12T00:42:24.276Z,100707.19
2022-12-12T00:47:39.256Z,100705.94
2022-12-12T00:52:54.240Z,100699.63
2022-12-12T00:58:09.045Z,100704.91
2022-12-12T01:03:24.237Z,100697.34
2022-12-12T01:08:39.302Z,100704.91
2022-12-12T01:13:54.610Z,100706.91
2022-12-12T01:19:10.279Z,100712.75
2022-12-12T01:24:25.020Z,100715.25
2022-12-12T01:29:40.634Z,100722.28
2022-12-12T01:34:56.246Z,100726.31
2022-12-12T01:40:11.296Z,100725.81
2022-12-12T01:45:27.256Z,100733.63
2022-12-12T01:50:42.315Z,100738.69
2022-12-12T01:55:57.300Z,100748.53
2022-12-12T02:01:12.320Z,100733.91
2022-12-12T02:06:27.346Z,100740.44
2022-12-12T02:11:42.292Z,100739.66
2022-12-12T02:16:57.623Z,100738.69
2022-12-12T02:22:13.291Z,100742.44
2022-12-12T02:27:30.267Z,100740.44
2022-12-12T02:32:45.652Z,100739.94
2022-12-12T02:38:01.259Z,100742.91
2022-12-12T02:43:17.525Z,100744.69
2022-12-12T02:48:34.503Z,100748.22
2022-12-12T02:53:50.284Z,100754.28
2022-12-12T02:59:05.697Z,100751.75
2022-12-12T03:04:21.261Z,100747.72
2022-12-12T03:09:36.324Z,100749.19
2022-12-12T03:14:51.724Z,100749.97
2022-12-12T03:20:07.247Z,100754.53
2022-12-12T03:25:22.257Z,100757.03
2022-12-12T03:30:37.240Z,100759.25
2022-12-12T03:35:52.374Z,100756.47
2022-12-12T03:41:07.274Z,100762.31
2022-12-12T03:46:23.286Z,100764.59
2022-12-12T03:51:38.252Z,100763.06
2022-12-12T03:56:53.626Z,100768.34
2022-12-12T04:02:09.844Z,100761.50
2022-12-12T04:07:25.284Z,100764.53
2022-12-12T04:12:40.233Z,100764.78
2022-12-12T04:17:55.606Z,100765.78
2022-12-12T04:23:11.578Z,100764.78
2022-12-12T04:28:27.248Z,100767.25
2022-12-12T04:33:42.535Z,100769.03
2022-12-12T04:38:58.319Z,100765.75
2022-12-12T04:44:13.263Z,100776.09
2022-12-12T04:49:28.578Z,100785.19
2022-12-12T04:54:44.247Z,100777.09
2022-12-12T04:59:59.521Z,100778.63
2022-12-12T05:05:15.472Z,100789.19
2022-12-12T05:10:31.380Z,100789.94
2022-12-12T05:15:46.278Z,100791.97
2022-12-12T05:21:01.273Z,100789.72
2022-12-12T05:26:16.311Z,100795.25
2022-12-12T05:31:31.639Z,100794.78
2022-12-12T05:36:47.301Z,100795.53
2022-12-12T05:42:02.344Z,100791.47
2022-12-12T05:47:20.294Z,100794.00
2022-12-12T05:52:35.035Z,100794.00
2022-12-12T05:57:50.242Z,100796.53
2022-12-12T06:03:05.262Z,100803.34
2022-12-12T06:08:24.874Z,100811.66
2022-12-12T06:13:40.594Z,100811.66
2022-12-12T06:18:56.378Z,100814.97
2022-12-12T06:24:11.231Z,100814.97
2022-12-12T06:29:26.336Z,100807.91
2022-12-12T06:34:41.375Z,100820.28
2022-12-12T06:39:58.273Z,100821.50
2022-12-12T06:45:13.458Z,100822.06
2022-12-12T06:50:29.317Z,100822.06
2022-12-12T06:55:44.531Z,100816.50
2022-12-12T07:01:00.290Z,100824.56
2022-12-12T07:06:15.268Z,100824.34
2022-12-12T07:11:30.618Z,100832.13
2022-12-12T07:16:46.302Z,100833.44
2022-12-12T07:22:07.482Z,100838.69
2022-12-12T07:27:25.294Z,100844.25
2022-12-12T07:32:40.276Z,100848.06
2022-12-12T07:37:55.326Z,100857.13
2022-12-12T07:43:10.314Z,100860.41
2022-12-12T07:48:25.312Z,100865.75
2022-12-12T07:53:40.606Z,100867.72
2022-12-12T07:58:56.261Z,100873.28
2022-12-12T08:04:11.570Z,100882.59
2022-12-12T08:09:27.275Z,100892.72
2022-12-12T08:14:42.308Z,100892.72
2022-12-12T08:19:57.383Z,100895.22
2022-12-12T08:25:12.628Z,100901.53
2022-12-12T08:30:28.699Z,100903.53
2022-12-12T08:36:22.322Z,100897.75
2022-12-12T08:41:37.247Z,100900.75
2022-12-12T08:46:52.381Z,100901.03
2022-12-12T08:52:07.626Z,100898.50
2022-12-12T08:57:26.026Z,100903.31
2022-12-12T09:02:41.554Z,100896.72
2022-12-12T09:07:57.460Z,100897.25
2022-12-12T09:13:12.282Z,100902.28
2022-12-12T09:18:27.258Z,100910.88
2022-12-12T09:23:43.316Z,100913.66
2022-12-12T09:28:58.164Z,100921.47
2022-12-12T09:34:13.694Z,100907.34
2022-12-12T09:39:29.329Z,100908.63
2022-12-12T09:44:44.080Z,100898.25
2022-12-12T09:50:00.614Z,100905.56
2022-12-12T09:55:16.399Z,100905.31
2022-12-12T10:00:31.752Z,100909.88
2022-12-12T10:05:47.341Z,100913.16
2022-12-12T10:11:03.665Z,100907.59
2022-12-12T10:16:19.318Z,100908.09
2022-12-12T10:21:34.297Z,100905.81
2022-12-12T10:26:49.328Z,100903.56
2022-12-12T10:32:04.318Z,100900.03
2022-12-12T10:37:19.271Z,100898.53
2022-12-12T10:42:34.588Z,100889.44
2022-12-12T10:47:50.565Z,100878.34
2022-12-12T10:53:06.346Z,100880.88
2022-12-12T10:58:21.314Z,100877.59
2022-12-12T11:03:36.334Z,100884.88
2022-12-12T11:08:51.347Z,100879.13
2022-12-12T11:14:06.718Z,100876.06
2022-12-12T11:19:22.416Z,100875.28
2022-12-12T11:24:37.540Z,100863.44
2022-12-12T11:29:53.374Z,100867.50
2022-12-12T11:35:08.703Z,100866.75
2022-12-12T11:40:24.698Z,100860.44
2022-12-12T11:45:40.693Z,100862.47
2022-12-12T11:50:56.629Z,100863.72
2022-12-12T11:56:12.349Z,100858.16
2022-12-12T12:01:27.277Z,100855.94
2022-12-12T12:06:42.123Z,100855.94
2022-12-12T12:11:57.310Z,100853.16
2022-12-12T12:17:12.299Z,100857.16
2022-12-12T12:22:27.122Z,100850.09
2022-12-12T12:27:42.061Z,100848.84
2022-12-12T12:32:57.334Z,100845.31
2022-12-12T12:38:13.289Z,100848.56
2022-12-12T12:43:28.336Z,100854.13
2022-12-12T12:48:43.596Z,100856.91
2022-12-12T12:53:59.394Z,100849.88
2022-12-12T12:59:14.380Z,100851.59
2022-12-12T13:04:29.373Z,100852.38
2022-12-12T13:09:44.621Z,100857.16
2022-12-12T13:15:00.240Z,100846.84
2022-12-12T13:20:16.863Z,100838.22
2022-12-12T13:25:32.311Z,100834.69
2022-12-12T13:30:47.498Z,100838.00
2022-12-12T13:36:02.367Z,100849.09
2022-12-12T13:41:17.411Z,100843.78
2022-12-12T13:46:32.337Z,100846.53
2022-12-12T13:51:48.433Z,100853.06
2022-12-12T13:57:03.372Z,100856.88
2022-12-12T14:02:18.347Z,100846.00
2022-12-12T14:07:33.353Z,100850.31
2022-12-12T14:12:48.326Z,100847.53
2022-12-12T14:18:03.314Z,100844.00
2022-12-12T14:23:18.602Z,100833.66
2022-12-12T14:28:34.307Z,100841.97
2022-12-12T14:33:49.355Z,100851.06
2022-12-12T14:39:04.399Z,100856.63
2022-12-12T14:44:36.395Z,100854.59
2022-12-12T14:49:54.281Z,100850.31
2022-12-12T14:55:09.296Z,100849.81
2022-12-12T15:00:24.620Z,100859.91
2022-12-12T15:05:41.287Z,100853.88
2022-12-12T15:10:56.901Z,100876.31
2022-12-12T15:16:12.125Z,100885.16
2022-12-12T15:21:27.310Z,100886.16
2022-12-12T15:26:42.432Z,100883.88
2022-12-12T15:31:57.455Z,100883.66
2022-12-12T15:37:14.297Z,100884.16
2022-12-12T15:42:29.194Z,100891.44
2022-12-12T15:47:44.071Z,100891.44
2022-12-12T15:52:59.296Z,100886.16
2022-12-12T15:58:17.642Z,100893.75
2022-12-12T16:03:34.335Z,100897.47
2022-12-12T16:08:49.613Z,100891.94
2022-12-12T16:14:05.293Z,100895.25
2022-12-12T16:19:20.446Z,100892.22
2022-12-12T16:24:35.299Z,100885.16
2022-12-12T16:29:51.428Z,100887.19
2022-12-12T16:35:06.289Z,100892.44
2022-12-12T16:40:21.133Z,100897.75
2022-12-12T16:45:36.450Z,100895.50
2022-12-12T16:50:51.350Z,100905.06
2022-12-12T16:56:06.337Z,100905.56
2022-12-12T17:01:21.419Z,100904.81
2022-12-12T17:06:36.343Z,100905.31
2022-12-12T17:11:51.329Z,100903.78
2022-12-12T17:17:06.714Z,100895.97
2022-12-12T17:22:22.660Z,100887.41
2022-12-12T17:27:38.749Z,100893.44
2022-12-12T17:38:26.761Z,100906.06
2022-12-12T17:43:42.397Z,100897.97
2022-12-12T17:48:57.364Z,100898.22
2022-12-12T17:54:12.398Z,100900.25
2022-12-12T17:59:27.396Z,100898.72
2022-12-12T18:04:43.446Z,100883.34
2022-12-12T18:09:58.365Z,100879.81
2022-12-12T18:15:13.667Z,100879.59
2022-12-12T18:20:31.301Z,100876.06
2022-12-12T18:25:46.333Z,100878.81
2022-12-12T18:31:01.140Z,100873.00
2022-12-12T18:36:16.338Z,100873.00
2022-12-12T18:41:32.641Z,100879.34
2022-12-12T18:46:48.419Z,100890.16
2022-12-12T18:52:03.322Z,100886.63
2022-12-12T18:57:18.411Z,100898.22
2022-12-12T19:02:33.356Z,100891.16
2022-12-12T19:07:48.392Z,100897.97
2022-12-12T19:13:03.375Z,100886.13
2022-12-12T19:18:18.345Z,100889.38
2022-12-12T19:23:33.489Z,100877.53
2022-12-12T19:28:48.328Z,100883.06
2022-12-12T19:34:03.442Z,100891.16
2022-12-12T19:39:19.349Z,100889.63
2022-12-12T19:44:37.518Z,100897.19
2022-12-12T19:49:57.352Z,100888.91
2022-12-12T19:55:12.338Z,100893.47
2022-12-12T20:00:27.234Z,100889.69
2022-12-12T20:05:42.656Z,100892.19
2022-12-12T20:10:58.435Z,100889.94
2022-12-12T20:16:13.384Z,100896.25
2022-12-12T20:22:00.327Z,100890.19
2022-12-12T20:27:03.866Z,100904.31
2022-12-12T20:32:23.419Z,100904.56
2022-12-12T20:37:38.408Z,100902.78
2022-12-12T20:42:57.288Z,100901.03
2022-12-12T20:48:17.367Z,100916.19
2022-12-12T20:53:36.379Z,100907.09
2022-12-12T20:58:51.329Z,100910.09
2022-12-12T21:04:06.389Z,100913.63
2022-12-12T21:09:24.788Z,100899.25
2022-12-12T21:14:42.333Z,100905.56
2022-12-12T21:20:00.525Z,100906.81
2022-12-12T21:25:20.398Z,100905.56
2022-12-12T21:30:35.334Z,100903.59
2022-12-12T21:35:50.307Z,100912.38
2022-12-12T21:41:05.323Z,100915.16
2022-12-12T21:46:20.552Z,100913.63
2022-12-12T21:51:36.361Z,100910.84
2022-12-12T21:56:51.372Z,100913.88
2022-12-12T22:02:06.136Z,100913.88
2022-12-12T22:07:21.088Z,100906.81
2022-12-12T22:12:36.223Z,100913.13
2022-12-12T22:17:51.657Z,100912.38
2022-12-12T22:23:07.367Z,100909.13
2022-12-12T22:28:22.500Z,100915.91
2022-12-12T22:33:37.347Z,100917.91
2022-12-12T22:38:52.335Z,100913.63
2022-12-12T22:44:07.643Z,100915.66
2022-12-12T22:49:23.346Z,100912.38
2022-12-12T22:54:38.700Z,100916.41
2022-12-12T22:59:54.349Z,100911.91
2022-12-12T23:05:09.484Z,100912.16
2022-12-12T23:10:24.869Z,100906.34
2022-12-12T23:15:40.427Z,100900.03
2022-12-12T23:20:55.357Z,100899.03
2022-12-12T23:26:10.312Z,100887.91
2022-12-12T23:31:25.394Z,100884.38
2022-12-12T23:36:41.352Z,100886.41
2022-12-12T23:41:56.340Z,100885.16
2022-12-12T23:47:11.323Z,100875.31
2022-12-12T23:52:26.381Z,100878.84
2022-12-12T23:57:41.722Z,100876.06
